San Francisco, California
Traffic Map
Current Weather Conditions
San Francisco, California
Few Clouds
Few Clouds
13°
Feels Like: 13°
Wind Chill: 13° Ceiling: Unl
Heat Index: 13° Visibility: 10mi
Dew Point: 11° Wind: 0mph
Humidity: 84% Direction: ° ()
Pressure: 29.93in Gusts: 0mph
Raw Report DataKSFO 251156Z 00000KT 10SM FEW005 13/11 A2993 RMK AO2 SLP135 T01330106 10144 20128 55000
Traffic Incident Summary
Active as of:
Severity:
Category:
InformationThere was an issue retrieving the traffic information for this location. Please try a different location or try again shortly.
Advertisements
Track Severe Weather on mobile